sensor_id;sensor_type;location;lat;lon;timestamp;pressure;altitude;pressure_sealevel;temperature;humidity
12722;BME280;6425;50.316;8.114;2023-04-07T00:00:00;989;;;6.2;97.4
12722;BME280;6425;50.316;8.114;2023-04-07T00:03:00;989;;;6.2;97.4
12722;BME280;6425;50.316;8.114;2023-04-07T00:06:00;989;;;6.2;97.6
12722;BME280;6425;50.316;8.114;2023-04-07T00:09:00;989;;;6.3;97.1
12722;BME280;6425;50.316;8.114;2023-04-07T00:12:00;989;;;6.3;97
12722;BME280;6425;50.316;8.114;2023-04-07T00:15:00;989;;;6.3;97.1
12722;BME280;6425;50.316;8.114;2023-04-07T00:18:00;989;;;6.3;96.8
12722;BME280;6425;50.316;8.114;2023-04-07T00:21:00;989;;;6.2;97
12722;BME280;6425;50.316;8.114;2023-04-07T00:24:00;989;;;6.2;97.3
12722;BME280;6425;50.316;8.114;2023-04-07T00:27:00;989;;;6.2;97.5
12722;BME280;6425;50.316;8.114;2023-04-07T00:30:00;989;;;6.2;97.5
12722;BME280;6425;50.316;8.114;2023-04-07T00:33:00;989;;;6.2;97.7
12722;BME280;6425;50.316;8.114;2023-04-07T00:36:00;989;;;6.2;97.5
12722;BME280;6425;50.316;8.114;2023-04-07T00:39:00;989;;;6.4;97.2
12722;BME280;6425;50.316;8.114;2023-04-07T00:42:00;989;;;6.4;96.9
12722;BME280;6425;50.316;8.114;2023-04-07T00:45:00;989;;;6.3;97.2
12722;BME280;6425;50.316;8.114;2023-04-07T00:48:00;989;;;6.3;97.6
12722;BME280;6425;50.316;8.114;2023-04-07T00:51:00;988;;;6.3;97.6
12722;BME280;6425;50.316;8.114;2023-04-07T00:54:00;988;;;6.3;97.6
12722;BME280;6425;50.316;8.114;2023-04-07T00:57:00;988;;;6.2;97.8
12722;BME280;6425;50.316;8.114;2023-04-07T01:00:00;988;;;6.2;98
12722;BME280;6425;50.316;8.114;2023-04-07T01:03:00;988;;;6.3;98
12722;BME280;6425;50.316;8.114;2023-04-07T01:06:00;988;;;6.3;98.2
12722;BME280;6425;50.316;8.114;2023-04-07T01:09:01;988;;;6.3;98.3
12722;BME280;6425;50.316;8.114;2023-04-07T01:12:02;988;;;6.3;98.1
12722;BME280;6425;50.316;8.114;2023-04-07T01:15:05;988;;;6.5;98
12722;BME280;6425;50.316;8.114;2023-04-07T01:18:01;988;;;6.6;97
12722;BME280;6425;50.316;8.114;2023-04-07T01:21:01;988;;;6.8;96.3
12722;BME280;6425;50.316;8.114;2023-04-07T01:24:02;988;;;6.6;95.8
12722;BME280;6425;50.316;8.114;2023-04-07T01:27:04;988;;;6.5;96.4
12722;BME280;6425;50.316;8.114;2023-04-07T01:30:00;988;;;6.5;96.9
12722;BME280;6425;50.316;8.114;2023-04-07T01:33:00;988;;;6.4;97.5
12722;BME280;6425;50.316;8.114;2023-04-07T01:36:00;988;;;6.4;98
12722;BME280;6425;50.316;8.114;2023-04-07T01:39:00;988;;;6.3;98.2
12722;BME280;6425;50.316;8.114;2023-04-07T01:42:00;988;;;6.4;98.5
12722;BME280;6425;50.316;8.114;2023-04-07T01:45:00;988;;;6.5;98.5
12722;BME280;6425;50.316;8.114;2023-04-07T01:48:00;988;;;6.5;98.2
12722;BME280;6425;50.316;8.114;2023-04-07T01:51:00;988;;;6.5;98.1
12722;BME280;6425;50.316;8.114;2023-04-07T01:54:00;988;;;6.5;98
12722;BME280;6425;50.316;8.114;2023-04-07T01:57:00;988;;;6.5;98
12722;BME280;6425;50.316;8.114;2023-04-07T02:00:00;988;;;6.4;98.2
12722;BME280;6425;50.316;8.114;2023-04-07T02:03:01;988;;;6.3;98.6
12722;BME280;6425;50.316;8.114;2023-04-07T02:06:01;988;;;6.3;99.1
12722;BME280;6425;50.316;8.114;2023-04-07T02:09:01;988;;;6.3;99.4
12722;BME280;6425;50.316;8.114;2023-04-07T02:12:00;988;;;6.3;99.3
12722;BME280;6425;50.316;8.114;2023-04-07T02:15:00;988;;;6.4;99.2
12722;BME280;6425;50.316;8.114;2023-04-07T02:18:00;988;;;6.5;98.7
12722;BME280;6425;50.316;8.114;2023-04-07T02:21:00;988;;;6.6;98.3
12722;BME280;6425;50.316;8.114;2023-04-07T02:24:00;988;;;6.7;97.9
12722;BME280;6425;50.316;8.114;2023-04-07T02:27:00;988;;;6.7;97.3
12722;BME280;6425;50.316;8.114;2023-04-07T02:30:00;988;;;6.8;96.9
12722;BME280;6425;50.316;8.114;2023-04-07T02:33:00;988;;;7.1;96.2
12722;BME280;6425;50.316;8.114;2023-04-07T02:36:00;988;;;7.4;94.5
12722;BME280;6425;50.316;8.114;2023-04-07T02:39:00;988;;;7.6;92.5
12722;BME280;6425;50.316;8.114;2023-04-07T02:42:00;988;;;7.2;92.4
12722;BME280;6425;50.316;8.114;2023-04-07T02:45:00;988;;;7.1;93.1
12722;BME280;6425;50.316;8.114;2023-04-07T02:48:00;988;;;7;93.9
12722;BME280;6425;50.316;8.114;2023-04-07T02:51:00;988;;;6.9;94.6
12722;BME280;6425;50.316;8.114;2023-04-07T02:54:00;988;;;6.9;95.7
12722;BME280;6425;50.316;8.114;2023-04-07T02:57:00;988;;;6.9;95.6
12722;BME280;6425;50.316;8.114;2023-04-07T03:00:00;988;;;6.8;95.9
12722;BME280;6425;50.316;8.114;2023-04-07T03:03:00;988;;;6.9;95.9
12722;BME280;6425;50.316;8.114;2023-04-07T03:06:00;988;;;6.8;95.9
12722;BME280;6425;50.316;8.114;2023-04-07T03:09:00;988;;;6.8;96.4
12722;BME280;6425;50.316;8.114;2023-04-07T03:12:00;988;;;6.7;96.7
12722;BME280;6425;50.316;8.114;2023-04-07T03:15:00;988;;;6.6;97.2
12722;BME280;6425;50.316;8.114;2023-04-07T03:18:00;988;;;6.6;97.9
12722;BME280;6425;50.316;8.114;2023-04-07T03:21:00;988;;;6.7;97.7
12722;BME280;6425;50.316;8.114;2023-04-07T03:24:00;988;;;6.7;97.6
12722;BME280;6425;50.316;8.114;2023-04-07T03:27:00;988;;;6.9;96.6
12722;BME280;6425;50.316;8.114;2023-04-07T03:30:00;988;;;7.1;95.8
12722;BME280;6425;50.316;8.114;2023-04-07T03:33:00;988;;;7;95.3
12722;BME280;6425;50.316;8.114;2023-04-07T03:36:00;988;;;7.1;95.2
12722;BME280;6425;50.316;8.114;2023-04-07T03:39:00;988;;;7.3;94.5
12722;BME280;6425;50.316;8.114;2023-04-07T03:42:00;988;;;7.6;93.3
12722;BME280;6425;50.316;8.114;2023-04-07T03:45:00;988;;;7.5;92.1
12722;BME280;6425;50.316;8.114;2023-04-07T03:48:00;988;;;7.3;92.8
12722;BME280;6425;50.316;8.114;2023-04-07T03:51:00;988;;;7.5;92.6
12722;BME280;6425;50.316;8.114;2023-04-07T03:54:00;988;;;7.6;92
12722;BME280;6425;50.316;8.114;2023-04-07T03:57:00;988;;;7.5;92.3
12722;BME280;6425;50.316;8.114;2023-04-07T04:00:00;988;;;7.7;91.6
12722;BME280;6425;50.316;8.114;2023-04-07T04:03:00;988;;;7.5;92.3
12722;BME280;6425;50.316;8.114;2023-04-07T04:06:00;988;;;7.6;92.4
12722;BME280;6425;50.316;8.114;2023-04-07T04:09:00;988;;;7.5;91.8
12722;BME280;6425;50.316;8.114;2023-04-07T04:12:00;988;;;7.6;91.9
12722;BME280;6425;50.316;8.114;2023-04-07T04:15:00;988;;;7.7;91.5
12722;BME280;6425;50.316;8.114;2023-04-07T04:18:00;988;;;7.7;91.6
12722;BME280;6425;50.316;8.114;2023-04-07T04:21:00;988;;;7.9;90.3
12722;BME280;6425;50.316;8.114;2023-04-07T04:24:00;988;;;7.9;90.6
12722;BME280;6425;50.316;8.114;2023-04-07T04:27:00;988;;;8;89.7
12722;BME280;6425;50.316;8.114;2023-04-07T04:30:00;988;;;7.9;89.5
12722;BME280;6425;50.316;8.114;2023-04-07T04:33:00;988;;;8.3;88.8
12722;BME280;6425;50.316;8.114;2023-04-07T04:36:00;988;;;8;87.8
12722;BME280;6425;50.316;8.114;2023-04-07T04:39:00;988;;;7.8;89
12722;BME280;6425;50.316;8.114;2023-04-07T04:42:00;988;;;7.5;90.1
12722;BME280;6425;50.316;8.114;2023-04-07T04:45:00;988;;;7.5;91.3
12722;BME280;6425;50.316;8.114;2023-04-07T04:48:00;988;;;7.4;91.7
12722;BME280;6425;50.316;8.114;2023-04-07T04:51:00;988;;;7.2;92.3
12722;BME280;6425;50.316;8.114;2023-04-07T04:54:00;988;;;7.2;93.3
12722;BME280;6425;50.316;8.114;2023-04-07T04:57:00;988;;;7.1;94
12722;BME280;6425;50.316;8.114;2023-04-07T05:00:00;988;;;7.2;94.1
12722;BME280;6425;50.316;8.114;2023-04-07T05:03:00;988;;;7.5;93.1
12722;BME280;6425;50.316;8.114;2023-04-07T05:06:00;988;;;7.4;92.2
12722;BME280;6425;50.316;8.114;2023-04-07T05:09:00;988;;;7.5;92.2
12722;BME280;6425;50.316;8.114;2023-04-07T05:12:00;988;;;7.4;92
12722;BME280;6425;50.316;8.114;2023-04-07T05:15:00;988;;;7.3;92.6
12722;BME280;6425;50.316;8.114;2023-04-07T05:18:00;988;;;7.1;93.2
12722;BME280;6425;50.316;8.114;2023-04-07T05:21:00;988;;;7.1;93.9
12722;BME280;6425;50.316;8.114;2023-04-07T05:24:00;988;;;7.2;94.5
12722;BME280;6425;50.316;8.114;2023-04-07T05:27:00;988;;;7.2;94.7
12722;BME280;6425;50.316;8.114;2023-04-07T05:30:00;988;;;7.2;94.8
12722;BME280;6425;50.316;8.114;2023-04-07T05:33:00;988;;;7.2;94.8
12722;BME280;6425;50.316;8.114;2023-04-07T05:36:00;988;;;7.1;95.3
12722;BME280;6425;50.316;8.114;2023-04-07T05:39:00;988;;;7.2;95.5
12722;BME280;6425;50.316;8.114;2023-04-07T05:42:00;988;;;7.2;95.5
12722;BME280;6425;50.316;8.114;2023-04-07T05:45:00;988;;;7;96.3
12722;BME280;6425;50.316;8.114;2023-04-07T05:48:00;988;;;7.1;97
12722;BME280;6425;50.316;8.114;2023-04-07T05:51:00;988;;;7;97.4
12722;BME280;6425;50.316;8.114;2023-04-07T05:54:00;988;;;7.1;98
12722;BME280;6425;50.316;8.114;2023-04-07T05:57:00;988;;;7;98
12722;BME280;6425;50.316;8.114;2023-04-07T06:00:00;988;;;6.8;98.6
12722;BME280;6425;50.316;8.114;2023-04-07T06:03:00;988;;;6.8;99.1
12722;BME280;6425;50.316;8.114;2023-04-07T06:06:00;988;;;6.9;99.4
12722;BME280;6425;50.316;8.114;2023-04-07T06:09:00;988;;;7.1;99.1
12722;BME280;6425;50.316;8.114;2023-04-07T06:12:00;988;;;7.4;98.2
12722;BME280;6425;50.316;8.114;2023-04-07T06:15:00;988;;;7.7;96.6
12722;BME280;6425;50.316;8.114;2023-04-07T06:18:00;988;;;7.7;95.6
12722;BME280;6425;50.316;8.114;2023-04-07T06:21:00;988;;;8;94.5
12722;BME280;6425;50.316;8.114;2023-04-07T06:24:00;988;;;7.7;94.6
12722;BME280;6425;50.316;8.114;2023-04-07T06:27:00;988;;;8.1;94.4
12722;BME280;6425;50.316;8.114;2023-04-07T06:30:00;988;;;8.2;92.3
12722;BME280;6425;50.316;8.114;2023-04-07T06:33:00;988;;;7.1;95.9
12722;BME280;6425;50.316;8.114;2023-04-07T06:36:00;988;;;7.4;98.3
12722;BME280;6425;50.316;8.114;2023-04-07T06:39:00;988;;;7.9;97
12722;BME280;6425;50.316;8.114;2023-04-07T06:42:00;988;;;8.3;95.8
12722;BME280;6425;50.316;8.114;2023-04-07T06:45:00;988;;;8.2;94.9
12722;BME280;6425;50.316;8.114;2023-04-07T06:48:00;988;;;8.1;94.7
12722;BME280;6425;50.316;8.114;2023-04-07T06:51:00;988;;;8;95.1
12722;BME280;6425;50.316;8.114;2023-04-07T06:54:00;988;;;8.4;94.9
12722;BME280;6425;50.316;8.114;2023-04-07T06:57:00;988;;;8;94.5
12722;BME280;6425;50.316;8.114;2023-04-07T07:00:00;988;;;7.4;97.3
12722;BME280;6425;50.316;8.114;2023-04-07T07:03:00;988;;;7;100
12722;BME280;6425;50.316;8.114;2023-04-07T07:06:00;988;;;7.2;100
12722;BME280;6425;50.316;8.114;2023-04-07T07:09:00;988;;;6.9;100
12722;BME280;6425;50.316;8.114;2023-04-07T07:12:00;988;;;6.9;100
12722;BME280;6425;50.316;8.114;2023-04-07T07:15:00;988;;;7.2;100
12722;BME280;6425;50.316;8.114;2023-04-07T07:18:00;988;;;7.5;100
12722;BME280;6425;50.316;8.114;2023-04-07T07:21:00;988;;;6.8;100
12722;BME280;6425;50.316;8.114;2023-04-07T07:24:00;988;;;6.6;100
12722;BME280;6425;50.316;8.114;2023-04-07T07:27:00;988;;;6.6;100
12722;BME280;6425;50.316;8.114;2023-04-07T07:30:00;988;;;6.7;100
12722;BME280;6425;50.316;8.114;2023-04-07T07:33:00;988;;;6.7;100
12722;BME280;6425;50.316;8.114;2023-04-07T07:36:00;988;;;6.7;100
12722;BME280;6425;50.316;8.114;2023-04-07T07:39:00;988;;;6.7;100
12722;BME280;6425;50.316;8.114;2023-04-07T07:42:00;988;;;6.8;100
12722;BME280;6425;50.316;8.114;2023-04-07T07:45:00;988;;;6.8;100
12722;BME280;6425;50.316;8.114;2023-04-07T07:48:00;988;;;6.7;100
12722;BME280;6425;50.316;8.114;2023-04-07T07:51:00;989;;;6.7;100
12722;BME280;6425;50.316;8.114;2023-04-07T07:54:00;989;;;6.9;100
12722;BME280;6425;50.316;8.114;2023-04-07T07:57:00;989;;;7.1;100
12722;BME280;6425;50.316;8.114;2023-04-07T08:00:00;989;;;7.2;100
12722;BME280;6425;50.316;8.114;2023-04-07T08:03:00;989;;;7.1;100
12722;BME280;6425;50.316;8.114;2023-04-07T08:06:00;989;;;7;100
12722;BME280;6425;50.316;8.114;2023-04-07T08:09:00;989;;;7;100
12722;BME280;6425;50.316;8.114;2023-04-07T08:12:00;989;;;7;100
12722;BME280;6425;50.316;8.114;2023-04-07T08:15:00;989;;;7.1;100
12722;BME280;6425;50.316;8.114;2023-04-07T08:18:00;989;;;7.1;100
12722;BME280;6425;50.316;8.114;2023-04-07T08:21:00;989;;;7.1;100
12722;BME280;6425;50.316;8.114;2023-04-07T08:24:00;989;;;7.2;100
12722;BME280;6425;50.316;8.114;2023-04-07T08:27:00;989;;;7.1;100
12722;BME280;6425;50.316;8.114;2023-04-07T08:30:00;989;;;7.1;100
12722;BME280;6425;50.316;8.114;2023-04-07T08:33:00;989;;;7.2;100
12722;BME280;6425;50.316;8.114;2023-04-07T08:36:00;989;;;6.9;100
12722;BME280;6425;50.316;8.114;2023-04-07T08:39:00;989;;;6.6;100
12722;BME280;6425;50.316;8.114;2023-04-07T08:42:00;989;;;6.5;100
12722;BME280;6425;50.316;8.114;2023-04-07T08:45:01;989;;;6.5;100
12722;BME280;6425;50.316;8.114;2023-04-07T08:48:00;989;;;6.7;100
12722;BME280;6425;50.316;8.114;2023-04-07T08:51:02;989;;;6.8;100
12722;BME280;6425;50.316;8.114;2023-04-07T08:54:02;989;;;6.9;100
12722;BME280;6425;50.316;8.114;2023-04-07T08:57:00;989;;;6.9;100
12722;BME280;6425;50.316;8.114;2023-04-07T09:00:00;989;;;6.8;100
12722;BME280;6425;50.316;8.114;2023-04-07T09:03:00;989;;;7.1;100
12722;BME280;6425;50.316;8.114;2023-04-07T09:06:00;989;;;7.1;100
12722;BME280;6425;50.316;8.114;2023-04-07T09:09:00;989;;;7.4;100
12722;BME280;6425;50.316;8.114;2023-04-07T09:12:00;989;;;7.6;100
12722;BME280;6425;50.316;8.114;2023-04-07T09:15:00;989;;;7.1;100
12722;BME280;6425;50.316;8.114;2023-04-07T09:18:00;989;;;7;100
12722;BME280;6425;50.316;8.114;2023-04-07T09:21:00;989;;;7.2;100
12722;BME280;6425;50.316;8.114;2023-04-07T09:24:00;989;;;7.1;100
12722;BME280;6425;50.316;8.114;2023-04-07T09:27:07;989;;;7.7;100
12722;BME280;6425;50.316;8.114;2023-04-07T09:30:09;989;;;8.2;100
12722;BME280;6425;50.316;8.114;2023-04-07T09:33:00;989;;;8.6;99.9
12722;BME280;6425;50.316;8.114;2023-04-07T09:36:00;989;;;8.8;97.2
12722;BME280;6425;50.316;8.114;2023-04-07T09:39:00;989;;;9.1;93.9
12722;BME280;6425;50.316;8.114;2023-04-07T09:42:01;989;;;8.9;92.4
12722;BME280;6425;50.316;8.114;2023-04-07T09:45:00;989;;;8.9;92.5
12722;BME280;6425;50.316;8.114;2023-04-07T09:48:03;989;;;9.2;92.5
12722;BME280;6425;50.316;8.114;2023-04-07T09:51:04;989;;;9.1;91
12722;BME280;6425;50.316;8.114;2023-04-07T09:54:00;989;;;9.3;90.9
12722;BME280;6425;50.316;8.114;2023-04-07T09:57:00;989;;;9.3;89.6
12722;BME280;6425;50.316;8.114;2023-04-07T10:00:00;989;;;9.5;89
12722;BME280;6425;50.316;8.114;2023-04-07T10:03:00;989;;;9.8;87.5
12722;BME280;6425;50.316;8.114;2023-04-07T10:06:00;989;;;9.6;87
12722;BME280;6425;50.316;8.114;2023-04-07T10:09:00;989;;;8.6;89.4
12722;BME280;6425;50.316;8.114;2023-04-07T10:12:00;989;;;8.8;92.4
12722;BME280;6425;50.316;8.114;2023-04-07T10:15:00;990;;;9.5;91.6
12722;BME280;6425;50.316;8.114;2023-04-07T10:18:00;990;;;9.9;87.5
12722;BME280;6425;50.316;8.114;2023-04-07T10:21:00;990;;;10;84.9
12722;BME280;6425;50.316;8.114;2023-04-07T10:24:03;990;;;10.2;84.9
12722;BME280;6425;50.316;8.114;2023-04-07T10:27:01;990;;;10.1;83.9
12722;BME280;6425;50.316;8.114;2023-04-07T10:30:00;990;;;9.9;84.1
12722;BME280;6425;50.316;8.114;2023-04-07T10:33:00;990;;;10.1;83.2
12722;BME280;6425;50.316;8.114;2023-04-07T10:36:03;990;;;9.9;83.4
12722;BME280;6425;50.316;8.114;2023-04-07T10:39:31;990;;;10;84.7
12722;BME280;6425;50.316;8.114;2023-04-07T10:42:00;990;;;10.2;84.3
12722;BME280;6425;50.316;8.114;2023-04-07T10:45:00;990;;;10.5;82.1
12722;BME280;6425;50.316;8.114;2023-04-07T10:48:15;990;;;10.7;83.7
12722;BME280;6425;50.316;8.114;2023-04-07T10:51:16;990;;;10.6;81.3
12722;BME280;6425;50.316;8.114;2023-04-07T10:54:15;990;;;9.9;82.1
12722;BME280;6425;50.316;8.114;2023-04-07T10:57:04;990;;;9.3;86.2
12722;BME280;6425;50.316;8.114;2023-04-07T11:00:15;990;;;9.6;84.9
12722;BME280;6425;50.316;8.114;2023-04-07T11:03:02;990;;;10;83.2
12722;BME280;6425;50.316;8.114;2023-04-07T11:06:03;990;;;9.8;82.8
12722;BME280;6425;50.316;8.114;2023-04-07T11:09:00;990;;;9.9;82.7
12722;BME280;6425;50.316;8.114;2023-04-07T11:12:00;990;;;9.6;83.2
12722;BME280;6425;50.316;8.114;2023-04-07T11:15:05;990;;;8.9;87
12722;BME280;6425;50.316;8.114;2023-04-07T11:18:16;990;;;9.1;87.6
12722;BME280;6425;50.316;8.114;2023-04-07T11:21:00;990;;;9.1;86.8
12722;BME280;6425;50.316;8.114;2023-04-07T11:24:00;990;;;8.8;90.6
12722;BME280;6425;50.316;8.114;2023-04-07T11:27:00;990;;;8.7;92
12722;BME280;6425;50.316;8.114;2023-04-07T11:30:00;990;;;8.5;92.8
12722;BME280;6425;50.316;8.114;2023-04-07T11:33:00;990;;;9.4;92.2
12722;BME280;6425;50.316;8.114;2023-04-07T11:36:00;990;;;10.2;89.1
12722;BME280;6425;50.316;8.114;2023-04-07T11:39:00;990;;;10.7;83.5
12722;BME280;6425;50.316;8.114;2023-04-07T11:42:00;990;;;10.7;83.3
12722;BME280;6425;50.316;8.114;2023-04-07T11:45:00;990;;;10.9;80.9
12722;BME280;6425;50.316;8.114;2023-04-07T11:48:00;990;;;11;81.2
12722;BME280;6425;50.316;8.114;2023-04-07T11:51:00;990;;;10.7;80.7
12722;BME280;6425;50.316;8.114;2023-04-07T11:54:00;990;;;10.2;81.7
12722;BME280;6425;50.316;8.114;2023-04-07T11:57:00;990;;;10.6;82.4
12722;BME280;6425;50.316;8.114;2023-04-07T12:00:07;990;;;10.5;82.8
12722;BME280;6425;50.316;8.114;2023-04-07T12:03:07;990;;;10.6;82.9
12722;BME280;6425;50.316;8.114;2023-04-07T12:06:00;990;;;10.4;82
12722;BME280;6425;50.316;8.114;2023-04-07T12:09:00;990;;;10.9;82.7
12722;BME280;6425;50.316;8.114;2023-04-07T12:12:00;990;;;9.2;86.3
12722;BME280;6425;50.316;8.114;2023-04-07T12:15:00;990;;;8.8;91
12722;BME280;6425;50.316;8.114;2023-04-07T12:18:00;990;;;9.8;91.7
12722;BME280;6425;50.316;8.114;2023-04-07T12:21:00;990;;;10.4;88.9
12722;BME280;6425;50.316;8.114;2023-04-07T12:24:00;990;;;10.2;85.4
12722;BME280;6425;50.316;8.114;2023-04-07T12:27:00;990;;;10.4;85.2
12722;BME280;6425;50.316;8.114;2023-04-07T12:30:00;990;;;9.7;83.8
12722;BME280;6425;50.316;8.114;2023-04-07T12:33:00;990;;;9.7;85.4
12722;BME280;6425;50.316;8.114;2023-04-07T12:36:00;990;;;9.2;85.9
12722;BME280;6425;50.316;8.114;2023-04-07T12:39:00;990;;;9.1;86.8
12722;BME280;6425;50.316;8.114;2023-04-07T12:42:00;990;;;9.5;86.8
12722;BME280;6425;50.316;8.114;2023-04-07T12:45:00;990;;;9.6;85.7
12722;BME280;6425;50.316;8.114;2023-04-07T12:48:00;990;;;10.2;83.3
12722;BME280;6425;50.316;8.114;2023-04-07T12:51:00;990;;;10.4;81.7
12722;BME280;6425;50.316;8.114;2023-04-07T12:54:00;990;;;10.4;80.7
12722;BME280;6425;50.316;8.114;2023-04-07T12:57:00;990;;;10.5;81.3
12722;BME280;6425;50.316;8.114;2023-04-07T13:00:00;990;;;10.1;82.9
12722;BME280;6425;50.316;8.114;2023-04-07T13:03:00;990;;;9.6;84.5
12722;BME280;6425;50.316;8.114;2023-04-07T13:06:00;991;;;9.7;87.2
12722;BME280;6425;50.316;8.114;2023-04-07T13:09:00;990;;;10.1;86.5
12722;BME280;6425;50.316;8.114;2023-04-07T13:12:00;991;;;10.1;85.4
12722;BME280;6425;50.316;8.114;2023-04-07T13:15:00;991;;;10.1;86.1
12722;BME280;6425;50.316;8.114;2023-04-07T13:18:00;991;;;10.1;87.1
12722;BME280;6425;50.316;8.114;2023-04-07T13:21:00;991;;;9.6;88.1
12722;BME280;6425;50.316;8.114;2023-04-07T13:24:00;991;;;9.1;89.9
12722;BME280;6425;50.316;8.114;2023-04-07T13:27:00;991;;;9.1;91.2
12722;BME280;6425;50.316;8.114;2023-04-07T13:30:00;991;;;8.8;90.6
12722;BME280;6425;50.316;8.114;2023-04-07T13:33:00;991;;;9;91.6
12722;BME280;6425;50.316;8.114;2023-04-07T13:36:00;991;;;9.3;90.7
12722;BME280;6425;50.316;8.114;2023-04-07T13:39:00;991;;;9.4;89.4
12722;BME280;6425;50.316;8.114;2023-04-07T13:42:00;991;;;9.9;89.2
12722;BME280;6425;50.316;8.114;2023-04-07T13:45:00;991;;;10.4;86.5
12722;BME280;6425;50.316;8.114;2023-04-07T13:48:00;991;;;9.7;87.3
12722;BME280;6425;50.316;8.114;2023-04-07T13:51:00;990;;;9.9;87.2
12722;BME280;6425;50.316;8.114;2023-04-07T13:54:00;991;;;10.6;87.1
12722;BME280;6425;50.316;8.114;2023-04-07T13:57:00;991;;;10.1;86.3
12722;BME280;6425;50.316;8.114;2023-04-07T14:00:00;991;;;10.1;86.4
12722;BME280;6425;50.316;8.114;2023-04-07T14:03:00;991;;;9.6;89.2
12722;BME280;6425;50.316;8.114;2023-04-07T14:06:00;991;;;10.2;86.9
12722;BME280;6425;50.316;8.114;2023-04-07T14:09:00;991;;;9.5;85
12722;BME280;6425;50.316;8.114;2023-04-07T14:12:00;991;;;9.6;87
12722;BME280;6425;50.316;8.114;2023-04-07T14:15:00;991;;;9.4;87
12722;BME280;6425;50.316;8.114;2023-04-07T14:18:00;991;;;9.6;87.4
12722;BME280;6425;50.316;8.114;2023-04-07T14:21:00;991;;;9.9;86.3
12722;BME280;6425;50.316;8.114;2023-04-07T14:24:00;991;;;9.9;86.8
12722;BME280;6425;50.316;8.114;2023-04-07T14:27:00;991;;;9.7;86.7
12722;BME280;6425;50.316;8.114;2023-04-07T14:30:00;991;;;9.9;86.5
12722;BME280;6425;50.316;8.114;2023-04-07T14:33:00;991;;;9.6;85.7
12722;BME280;6425;50.316;8.114;2023-04-07T14:36:00;991;;;9;87.6
12722;BME280;6425;50.316;8.114;2023-04-07T14:39:00;991;;;8.9;88.2
12722;BME280;6425;50.316;8.114;2023-04-07T14:42:00;991;;;8.9;88.8
12722;BME280;6425;50.316;8.114;2023-04-07T14:45:00;991;;;9.2;89.7
12722;BME280;6425;50.316;8.114;2023-04-07T14:48:00;991;;;9.2;87.5
12722;BME280;6425;50.316;8.114;2023-04-07T14:51:00;991;;;9.2;86.8
12722;BME280;6425;50.316;8.114;2023-04-07T14:54:00;991;;;9.6;86.5
12722;BME280;6425;50.316;8.114;2023-04-07T14:57:00;991;;;9.6;84.7
12722;BME280;6425;50.316;8.114;2023-04-07T15:00:00;991;;;9.7;83.6
12722;BME280;6425;50.316;8.114;2023-04-07T15:03:00;991;;;10;84.2
12722;BME280;6425;50.316;8.114;2023-04-07T15:06:00;991;;;10.2;82
12722;BME280;6425;50.316;8.114;2023-04-07T15:09:00;991;;;10.1;81.7
12722;BME280;6425;50.316;8.114;2023-04-07T15:12:00;991;;;10.3;79.9
12722;BME280;6425;50.316;8.114;2023-04-07T15:15:00;991;;;10.3;79.9
12722;BME280;6425;50.316;8.114;2023-04-07T15:18:00;991;;;10;77.4
12722;BME280;6425;50.316;8.114;2023-04-07T15:21:00;991;;;9.9;78.3
12722;BME280;6425;50.316;8.114;2023-04-07T15:24:00;991;;;10.1;79.7
12722;BME280;6425;50.316;8.114;2023-04-07T15:27:00;991;;;10;78
12722;BME280;6425;50.316;8.114;2023-04-07T15:30:00;991;;;10.1;79
12722;BME280;6425;50.316;8.114;2023-04-07T15:33:01;991;;;10;76.8
12722;BME280;6425;50.316;8.114;2023-04-07T15:36:00;991;;;10;79.1
12722;BME280;6425;50.316;8.114;2023-04-07T15:39:01;991;;;10.7;78.7
12722;BME280;6425;50.316;8.114;2023-04-07T15:42:00;991;;;10.5;74.9
12722;BME280;6425;50.316;8.114;2023-04-07T15:45:00;991;;;10.5;74.7
12722;BME280;6425;50.316;8.114;2023-04-07T15:48:00;991;;;10.7;73.6
12722;BME280;6425;50.316;8.114;2023-04-07T15:51:00;991;;;10.6;74.4
12722;BME280;6425;50.316;8.114;2023-04-07T15:54:00;991;;;10.5;75.3
12722;BME280;6425;50.316;8.114;2023-04-07T15:57:00;991;;;10.1;76.3
12722;BME280;6425;50.316;8.114;2023-04-07T16:00:00;991;;;10.1;76.9
12722;BME280;6425;50.316;8.114;2023-04-07T16:03:00;991;;;10;77.3
12722;BME280;6425;50.316;8.114;2023-04-07T16:06:00;991;;;9.7;79.8
12722;BME280;6425;50.316;8.114;2023-04-07T16:09:00;991;;;9.8;80.6
12722;BME280;6425;50.316;8.114;2023-04-07T16:12:00;991;;;9.8;79.7
12722;BME280;6425;50.316;8.114;2023-04-07T16:15:00;991;;;9.2;82.5
12722;BME280;6425;50.316;8.114;2023-04-07T16:18:03;991;;;8.5;85.9
12722;BME280;6425;50.316;8.114;2023-04-07T16:21:00;991;;;8.2;90.6
12722;BME280;6425;50.316;8.114;2023-04-07T16:24:00;991;;;8.5;91.8
12722;BME280;6425;50.316;8.114;2023-04-07T16:27:00;991;;;9;89.5
12722;BME280;6425;50.316;8.114;2023-04-07T16:30:00;991;;;8.9;89.3
12722;BME280;6425;50.316;8.114;2023-04-07T16:33:00;991;;;9.5;88.2
12722;BME280;6425;50.316;8.114;2023-04-07T16:36:00;991;;;10.3;85.9
12722;BME280;6425;50.316;8.114;2023-04-07T16:39:00;991;;;11;80.8
12722;BME280;6425;50.316;8.114;2023-04-07T16:42:00;991;;;10.5;79.4
12722;BME280;6425;50.316;8.114;2023-04-07T16:45:00;991;;;10.4;80.5
12722;BME280;6425;50.316;8.114;2023-04-07T16:48:00;991;;;10.3;81.4
12722;BME280;6425;50.316;8.114;2023-04-07T16:51:00;991;;;10.4;81.4
12722;BME280;6425;50.316;8.114;2023-04-07T16:54:00;991;;;10.4;81.5
12722;BME280;6425;50.316;8.114;2023-04-07T16:57:00;991;;;10.7;81
12722;BME280;6425;50.316;8.114;2023-04-07T17:00:00;991;;;10.6;80.1
12722;BME280;6425;50.316;8.114;2023-04-07T17:03:00;991;;;10.3;81.9
12722;BME280;6425;50.316;8.114;2023-04-07T17:06:00;992;;;10.4;81.2
12722;BME280;6425;50.316;8.114;2023-04-07T17:09:00;992;;;10.5;82.1
12722;BME280;6425;50.316;8.114;2023-04-07T17:12:00;992;;;10.1;81.5
12722;BME280;6425;50.316;8.114;2023-04-07T17:15:00;992;;;9.6;84.3
12722;BME280;6425;50.316;8.114;2023-04-07T17:18:00;992;;;9.7;85.3
12722;BME280;6425;50.316;8.114;2023-04-07T17:21:00;992;;;9.8;84.8
12722;BME280;6425;50.316;8.114;2023-04-07T17:24:00;992;;;10;84.3
12722;BME280;6425;50.316;8.114;2023-04-07T17:27:00;992;;;9.7;84.7
12722;BME280;6425;50.316;8.114;2023-04-07T17:30:00;992;;;9.9;84.4
12722;BME280;6425;50.316;8.114;2023-04-07T17:33:00;992;;;10.1;82.8
12722;BME280;6425;50.316;8.114;2023-04-07T17:36:00;992;;;10.1;82.1
12722;BME280;6425;50.316;8.114;2023-04-07T17:39:00;992;;;10.5;81.5
12722;BME280;6425;50.316;8.114;2023-04-07T17:42:00;992;;;10.7;79.9
12722;BME280;6425;50.316;8.114;2023-04-07T17:45:00;992;;;10.9;79
12722;BME280;6425;50.316;8.114;2023-04-07T17:48:00;992;;;10.7;79.7
12722;BME280;6425;50.316;8.114;2023-04-07T17:51:00;992;;;10.8;79.5
12722;BME280;6425;50.316;8.114;2023-04-07T17:54:00;992;;;10;82.7
12722;BME280;6425;50.316;8.114;2023-04-07T17:57:00;992;;;10;84.3
12722;BME280;6425;50.316;8.114;2023-04-07T18:00:00;992;;;9.6;85
12722;BME280;6425;50.316;8.114;2023-04-07T18:03:00;992;;;9.4;86.9
12722;BME280;6425;50.316;8.114;2023-04-07T18:06:00;992;;;9.9;85.7